sensor_id;sensor_type;location;lat;lon;timestamp;pressure;altitude;pressure_sealevel;temperature
76895;BMP280;65855;42.030;13.078;2023-10-08T00:00:49;94465.34;;;13.85
76895;BMP280;65855;42.030;13.078;2023-10-08T00:03:16;94461.84;;;13.81
76895;BMP280;65855;42.030;13.078;2023-10-08T00:05:46;94459.19;;;13.72
76895;BMP280;65855;42.030;13.078;2023-10-08T00:08:11;94456.81;;;13.76
76895;BMP280;65855;42.030;13.078;2023-10-08T00:10:40;94466.28;;;13.52
76895;BMP280;65855;42.030;13.078;2023-10-08T00:13:13;94468.06;;;13.34
76895;BMP280;65855;42.030;13.078;2023-10-08T00:15:40;94466.53;;;12.36
76895;BMP280;65855;42.030;13.078;2023-10-08T00:18:21;94468.44;;;12.21
76895;BMP280;65855;42.030;13.078;2023-10-08T00:20:48;94465.47;;;12.09
76895;BMP280;65855;42.030;13.078;2023-10-08T00:23:23;94476.41;;;12.04
76895;BMP280;65855;42.030;13.078;2023-10-08T00:25:54;94473.03;;;11.81
76895;BMP280;65855;42.030;13.078;2023-10-08T00:28:21;94470.78;;;11.79
76895;BMP280;65855;42.030;13.078;2023-10-08T00:30:46;94480.25;;;11.54
76895;BMP280;65855;42.030;13.078;2023-10-08T00:33:13;94481.78;;;11.51
76895;BMP280;65855;42.030;13.078;2023-10-08T00:35:39;94471.94;;;11.49
76895;BMP280;65855;42.030;13.078;2023-10-08T00:38:09;94481.16;;;11.21
76895;BMP280;65855;42.030;13.078;2023-10-08T00:40:41;94475.66;;;11.09
76895;BMP280;65855;42.030;13.078;2023-10-08T00:43:11;94475.56;;;11.28
76895;BMP280;65855;42.030;13.078;2023-10-08T00:45:37;94474.41;;;11.06
76895;BMP280;65855;42.030;13.078;2023-10-08T00:48:09;94466.31;;;11.04
76895;BMP280;65855;42.030;13.078;2023-10-08T00:50:35;94472.41;;;10.99
76895;BMP280;65855;42.030;13.078;2023-10-08T00:53:08;94460.81;;;10.93
76895;BMP280;65855;42.030;13.078;2023-10-08T00:55:42;94468.41;;;10.88
76895;BMP280;65855;42.030;13.078;2023-10-08T00:58:15;94470.34;;;11.05
76895;BMP280;65855;42.030;13.078;2023-10-08T01:00:51;94468.91;;;10.80
76895;BMP280;65855;42.030;13.078;2023-10-08T01:03:22;94459.63;;;10.66
76895;BMP280;65855;42.030;13.078;2023-10-08T01:05:47;94466.44;;;10.65
76895;BMP280;65855;42.030;13.078;2023-10-08T01:08:14;94459.84;;;10.79
76895;BMP280;65855;42.030;13.078;2023-10-08T01:10:44;94460.88;;;10.73
76895;BMP280;65855;42.030;13.078;2023-10-08T01:13:12;94465.00;;;10.30
76895;BMP280;65855;42.030;13.078;2023-10-08T01:15:45;94463.44;;;10.63
76895;BMP280;65855;42.030;13.078;2023-10-08T01:18:15;94453.88;;;11.23
76895;BMP280;65855;42.030;13.078;2023-10-08T01:20:41;94455.09;;;11.35
76895;BMP280;65855;42.030;13.078;2023-10-08T01:23:12;94445.06;;;12.33
76895;BMP280;65855;42.030;13.078;2023-10-08T01:25:41;94434.41;;;11.76
76895;BMP280;65855;42.030;13.078;2023-10-08T01:28:08;94433.31;;;11.53
76895;BMP280;65855;42.030;13.078;2023-10-08T01:30:40;94445.97;;;11.44
76895;BMP280;65855;42.030;13.078;2023-10-08T01:33:12;94440.69;;;11.45
76895;BMP280;65855;42.030;13.078;2023-10-08T01:35:39;94435.13;;;11.81
76895;BMP280;65855;42.030;13.078;2023-10-08T01:38:05;94442.84;;;11.61
76895;BMP280;65855;42.030;13.078;2023-10-08T01:40:32;94437.81;;;11.56
76895;BMP280;65855;42.030;13.078;2023-10-08T01:42:57;94441.84;;;11.57
76895;BMP280;65855;42.030;13.078;2023-10-08T01:45:26;94446.19;;;10.90
76895;BMP280;65855;42.030;13.078;2023-10-08T01:47:51;94453.75;;;10.95
76895;BMP280;65855;42.030;13.078;2023-10-08T01:50:20;94445.19;;;10.86
76895;BMP280;65855;42.030;13.078;2023-10-08T01:52:55;94451.25;;;10.90
76895;BMP280;65855;42.030;13.078;2023-10-08T01:55:20;94442.66;;;10.86
76895;BMP280;65855;42.030;13.078;2023-10-08T01:57:48;94445.06;;;10.48
76895;BMP280;65855;42.030;13.078;2023-10-08T02:00:15;94445.31;;;10.22
76895;BMP280;65855;42.030;13.078;2023-10-08T02:02:49;94446.34;;;10.26
76895;BMP280;65855;42.030;13.078;2023-10-08T02:05:19;94443.06;;;9.96
76895;BMP280;65855;42.030;13.078;2023-10-08T02:07:46;94443.78;;;9.77
76895;BMP280;65855;42.030;13.078;2023-10-08T02:10:11;94442.84;;;9.93
76895;BMP280;65855;42.030;13.078;2023-10-08T02:12:39;94442.53;;;9.55
76895;BMP280;65855;42.030;13.078;2023-10-08T02:15:05;94446.56;;;9.66
76895;BMP280;65855;42.030;13.078;2023-10-08T02:17:32;94440.28;;;9.59
76895;BMP280;65855;42.030;13.078;2023-10-08T02:19:58;94440.78;;;9.65
76895;BMP280;65855;42.030;13.078;2023-10-08T02:22:23;94451.09;;;9.69
76895;BMP280;65855;42.030;13.078;2023-10-08T02:24:48;94438.25;;;9.60
76895;BMP280;65855;42.030;13.078;2023-10-08T02:27:16;94440.72;;;9.31
76895;BMP280;65855;42.030;13.078;2023-10-08T02:29:42;94435.19;;;9.44
76895;BMP280;65855;42.030;13.078;2023-10-08T02:32:07;94443.53;;;9.64
76895;BMP280;65855;42.030;13.078;2023-10-08T02:34:33;94442.34;;;9.86
76895;BMP280;65855;42.030;13.078;2023-10-08T02:37:00;94443.81;;;9.72
76895;BMP280;65855;42.030;13.078;2023-10-08T02:39:28;94439.94;;;9.26
76895;BMP280;65855;42.030;13.078;2023-10-08T02:41:55;94445.50;;;9.37
76895;BMP280;65855;42.030;13.078;2023-10-08T02:44:24;94440.69;;;9.16
76895;BMP280;65855;42.030;13.078;2023-10-08T02:46:49;94446.72;;;9.25
76895;BMP280;65855;42.030;13.078;2023-10-08T02:49:20;94445.69;;;9.11
76895;BMP280;65855;42.030;13.078;2023-10-08T02:51:51;94448.28;;;8.66
76895;BMP280;65855;42.030;13.078;2023-10-08T02:54:17;94455.66;;;8.87
76895;BMP280;65855;42.030;13.078;2023-10-08T02:56:51;94453.13;;;8.87
76895;BMP280;65855;42.030;13.078;2023-10-08T02:59:20;94455.72;;;9.07
76895;BMP280;65855;42.030;13.078;2023-10-08T03:01:47;94455.81;;;9.26
76895;BMP280;65855;42.030;13.078;2023-10-08T03:04:15;94448.72;;;9.18
76895;BMP280;65855;42.030;13.078;2023-10-08T03:06:46;94452.78;;;9.24
76895;BMP280;65855;42.030;13.078;2023-10-08T03:09:19;94442.78;;;9.63
76895;BMP280;65855;42.030;13.078;2023-10-08T03:11:49;94450.34;;;9.54
76895;BMP280;65855;42.030;13.078;2023-10-08T03:14:16;94450.56;;;9.57
76895;BMP280;65855;42.030;13.078;2023-10-08T03:16:53;94449.63;;;9.78
76895;BMP280;65855;42.030;13.078;2023-10-08T03:19:19;94450.84;;;9.60
76895;BMP280;65855;42.030;13.078;2023-10-08T03:21:49;94448.31;;;9.56
76895;BMP280;65855;42.030;13.078;2023-10-08T03:24:21;94440.72;;;9.31
76895;BMP280;65855;42.030;13.078;2023-10-08T03:27:03;94443.81;;;9.72
76895;BMP280;65855;42.030;13.078;2023-10-08T03:29:35;94433.97;;;9.71
76895;BMP280;65855;42.030;13.078;2023-10-08T03:32:16;94429.22;;;10.08
76895;BMP280;65855;42.030;13.078;2023-10-08T03:34:46;94432.19;;;10.45
76895;BMP280;65855;42.030;13.078;2023-10-08T03:37:17;94426.13;;;11.18
76895;BMP280;65855;42.030;13.078;2023-10-08T03:39:50;94418.16;;;9.95
76895;BMP280;65855;42.030;13.078;2023-10-08T03:42:26;94425.88;;;9.35
76895;BMP280;65855;42.030;13.078;2023-10-08T03:45:05;94424.16;;;10.43
76895;BMP280;65855;42.030;13.078;2023-10-08T03:47:38;94413.03;;;11.96
76895;BMP280;65855;42.030;13.078;2023-10-08T03:50:08;94413.13;;;12.14
76895;BMP280;65855;42.030;13.078;2023-10-08T03:52:36;94410.25;;;11.98
76895;BMP280;65855;42.030;13.078;2023-10-08T03:55:06;94417.56;;;12.27
76895;BMP280;65855;42.030;13.078;2023-10-08T03:57:44;94413.06;;;11.58
76895;BMP280;65855;42.030;13.078;2023-10-08T04:00:13;94417.78;;;11.22
76895;BMP280;65855;42.030;13.078;2023-10-08T04:02:47;94423.75;;;10.88
76895;BMP280;65855;42.030;13.078;2023-10-08T04:05:26;94421.44;;;10.00
76895;BMP280;65855;42.030;13.078;2023-10-08T04:08:06;94427.97;;;10.06
76895;BMP280;65855;42.030;13.078;2023-10-08T04:10:42;94425.69;;;9.95
76895;BMP280;65855;42.030;13.078;2023-10-08T04:13:09;94431.00;;;10.03
76895;BMP280;65855;42.030;13.078;2023-10-08T04:15:38;94444.34;;;9.89
76895;BMP280;65855;42.030;13.078;2023-10-08T04:18:10;94435.78;;;9.85
76895;BMP280;65855;42.030;13.078;2023-10-08T04:20:36;94432.69;;;9.49
76895;BMP280;65855;42.030;13.078;2023-10-08T04:23:06;94428.75;;;8.83
76895;BMP280;65855;42.030;13.078;2023-10-08T04:25:39;94425.63;;;8.56
76895;BMP280;65855;42.030;13.078;2023-10-08T04:28:04;94425.41;;;8.67
76895;BMP280;65855;42.030;13.078;2023-10-08T04:30:35;94435.25;;;8.79
76895;BMP280;65855;42.030;13.078;2023-10-08T04:33:03;94431.06;;;8.94
76895;BMP280;65855;42.030;13.078;2023-10-08T04:35:36;94438.59;;;8.89
76895;BMP280;65855;42.030;13.078;2023-10-08T04:38:04;94428.25;;;8.86
76895;BMP280;65855;42.030;13.078;2023-10-08T04:40:36;94428.44;;;8.69
76895;BMP280;65855;42.030;13.078;2023-10-08T04:43:18;94423.63;;;8.63
76895;BMP280;65855;42.030;13.078;2023-10-08T04:45:57;94430.44;;;8.67
76895;BMP280;65855;42.030;13.078;2023-10-08T04:48:26;94429.66;;;8.62
76895;BMP280;65855;42.030;13.078;2023-10-08T04:50:56;94433.47;;;8.69
76895;BMP280;65855;42.030;13.078;2023-10-08T04:53:26;94430.03;;;8.90
76895;BMP280;65855;42.030;13.078;2023-10-08T04:56:12;94440.53;;;8.77
76895;BMP280;65855;42.030;13.078;2023-10-08T04:58:58;94446.94;;;8.54
76895;BMP280;65855;42.030;13.078;2023-10-08T05:01:23;94444.09;;;8.40
76895;BMP280;65855;42.030;13.078;2023-10-08T05:04:03;94447.41;;;8.46
76895;BMP280;65855;42.030;13.078;2023-10-08T05:06:31;94449.09;;;8.76
76895;BMP280;65855;42.030;13.078;2023-10-08T05:09:00;94446.91;;;8.99
76895;BMP280;65855;42.030;13.078;2023-10-08T05:11:35;94444.53;;;8.73
76895;BMP280;65855;42.030;13.078;2023-10-08T05:14:20;94446.47;;;9.17
76895;BMP280;65855;42.030;13.078;2023-10-08T05:17:02;94448.72;;;9.13
76895;BMP280;65855;42.030;13.078;2023-10-08T05:19:45;94456.75;;;8.50
76895;BMP280;65855;42.030;13.078;2023-10-08T05:22:23;94460.09;;;8.25
76895;BMP280;65855;42.030;13.078;2023-10-08T05:25:09;94459.25;;;8.15
76895;BMP280;65855;42.030;13.078;2023-10-08T05:27:42;94460.25;;;8.14
76895;BMP280;65855;42.030;13.078;2023-10-08T05:30:30;94457.28;;;9.17
76895;BMP280;65855;42.030;13.078;2023-10-08T05:33:18;94458.19;;;9.86
76895;BMP280;65855;42.030;13.078;2023-10-08T05:35:51;94460.13;;;9.50
76895;BMP280;65855;42.030;13.078;2023-10-08T05:38:22;94468.03;;;10.03
76895;BMP280;65855;42.030;13.078;2023-10-08T05:40:52;94459.19;;;10.39
76895;BMP280;65855;42.030;13.078;2023-10-08T05:43:28;94456.66;;;10.34
76895;BMP280;65855;42.030;13.078;2023-10-08T05:46:10;94455.91;;;10.39
76895;BMP280;65855;42.030;13.078;2023-10-08T05:48:50;94443.38;;;11.01
76895;BMP280;65855;42.030;13.078;2023-10-08T05:51:31;94447.63;;;11.10
76895;BMP280;65855;42.030;13.078;2023-10-08T05:54:22;94455.19;;;11.15
76895;BMP280;65855;42.030;13.078;2023-10-08T05:57:10;94456.47;;;11.08
76895;BMP280;65855;42.030;13.078;2023-10-08T05:59:45;94459.59;;;11.90
76895;BMP280;65855;42.030;13.078;2023-10-08T06:02:20;94462.22;;;12.41
76895;BMP280;65855;42.030;13.078;2023-10-08T06:05:05;94461.13;;;12.75
76895;BMP280;65855;42.030;13.078;2023-10-08T06:07:47;94466.47;;;12.97
76895;BMP280;65855;42.030;13.078;2023-10-08T06:10:14;94472.59;;;13.14
76895;BMP280;65855;42.030;13.078;2023-10-08T06:18:31;94484.38;;;13.64
76895;BMP280;65855;42.030;13.078;2023-10-08T06:21:06;94478.28;;;14.01
76895;BMP280;65855;42.030;13.078;2023-10-08T06:23:38;94481.06;;;13.82
76895;BMP280;65855;42.030;13.078;2023-10-08T06:26:04;94485.38;;;13.27
76895;BMP280;65855;42.030;13.078;2023-10-08T06:28:36;94481.69;;;12.92
76895;BMP280;65855;42.030;13.078;2023-10-08T06:31:04;94488.19;;;13.44
76895;BMP280;65855;42.030;13.078;2023-10-08T06:33:37;94485.66;;;13.62
76895;BMP280;65855;42.030;13.078;2023-10-08T06:36:04;94484.41;;;14.32
76895;BMP280;65855;42.030;13.078;2023-10-08T06:38:45;94489.47;;;15.08
76895;BMP280;65855;42.030;13.078;2023-10-08T06:41:15;94495.19;;;15.39
76895;BMP280;65855;42.030;13.078;2023-10-08T06:43:44;94497.25;;;15.64
76895;BMP280;65855;42.030;13.078;2023-10-08T06:46:30;94495.97;;;15.27
76895;BMP280;65855;42.030;13.078;2023-10-08T06:49:00;94503.88;;;15.12
76895;BMP280;65855;42.030;13.078;2023-10-08T06:51:25;94505.25;;;15.58
76895;BMP280;65855;42.030;13.078;2023-10-08T06:53:51;94496.53;;;16.20
76895;BMP280;65855;42.030;13.078;2023-10-08T06:56:19;94492.81;;;16.69
76895;BMP280;65855;42.030;13.078;2023-10-08T06:58:45;94502.91;;;17.50
76895;BMP280;65855;42.030;13.078;2023-10-08T07:01:18;94500.97;;;17.64
76895;BMP280;65855;42.030;13.078;2023-10-08T07:03:47;94499.38;;;18.51
76895;BMP280;65855;42.030;13.078;2023-10-08T07:06:14;94500.44;;;19.12
76895;BMP280;65855;42.030;13.078;2023-10-08T07:08:51;94499.44;;;19.04
76895;BMP280;65855;42.030;13.078;2023-10-08T07:11:21;94500.63;;;19.72
76895;BMP280;65855;42.030;13.078;2023-10-08T07:13:47;94492.00;;;19.20
76895;BMP280;65855;42.030;13.078;2023-10-08T07:16:12;94505.41;;;17.42
76895;BMP280;65855;42.030;13.078;2023-10-08T07:18:43;94507.56;;;17.10
76895;BMP280;65855;42.030;13.078;2023-10-08T07:21:16;94499.94;;;17.65
76895;BMP280;65855;42.030;13.078;2023-10-08T07:23:42;94495.56;;;17.65
76895;BMP280;65855;42.030;13.078;2023-10-08T07:26:27;94502.09;;;18.46
76895;BMP280;65855;42.030;13.078;2023-10-08T07:29:02;94503.84;;;18.71
76895;BMP280;65855;42.030;13.078;2023-10-08T07:31:33;94494.75;;;19.43
76895;BMP280;65855;42.030;13.078;2023-10-08T07:33:59;94499.69;;;20.37
76895;BMP280;65855;42.030;13.078;2023-10-08T07:36:41;94497.28;;;21.27
76895;BMP280;65855;42.030;13.078;2023-10-08T07:39:07;94494.63;;;20.80
76895;BMP280;65855;42.030;13.078;2023-10-08T07:41:34;94500.81;;;20.79
76895;BMP280;65855;42.030;13.078;2023-10-08T07:44:00;94493.63;;;21.28
76895;BMP280;65855;42.030;13.078;2023-10-08T07:46:26;94497.47;;;21.81
76895;BMP280;65855;42.030;13.078;2023-10-08T07:48:54;94490.97;;;22.76
76895;BMP280;65855;42.030;13.078;2023-10-08T07:51:20;94487.81;;;23.10
76895;BMP280;65855;42.030;13.078;2023-10-08T07:53:52;94482.88;;;23.20
76895;BMP280;65855;42.030;13.078;2023-10-08T07:56:21;94484.34;;;23.48
76895;BMP280;65855;42.030;13.078;2023-10-08T07:58:47;94481.38;;;23.34
76895;BMP280;65855;42.030;13.078;2023-10-08T08:01:13;94474.44;;;23.50
76895;BMP280;65855;42.030;13.078;2023-10-08T08:03:40;94478.66;;;23.27
76895;BMP280;65855;42.030;13.078;2023-10-08T08:06:07;94479.19;;;23.48
76895;BMP280;65855;42.030;13.078;2023-10-08T08:08:34;94480.78;;;23.86
76895;BMP280;65855;42.030;13.078;2023-10-08T08:11:07;94478.06;;;24.32
76895;BMP280;65855;42.030;13.078;2023-10-08T08:13:41;94479.06;;;24.64
76895;BMP280;65855;42.030;13.078;2023-10-08T08:16:11;94487.47;;;24.24
76895;BMP280;65855;42.030;13.078;2023-10-08T08:21:11;94487.00;;;24.37
76895;BMP280;65855;42.030;13.078;2023-10-08T08:23:43;94489.06;;;24.69
76895;BMP280;65855;42.030;13.078;2023-10-08T08:26:23;94480.81;;;25.01
76895;BMP280;65855;42.030;13.078;2023-10-08T08:28:59;94474.69;;;23.79
76895;BMP280;65855;42.030;13.078;2023-10-08T08:31:26;94477.06;;;23.38
76895;BMP280;65855;42.030;13.078;2023-10-08T08:33:53;94472.91;;;24.50
76895;BMP280;65855;42.030;13.078;2023-10-08T08:36:26;94467.91;;;25.23
76895;BMP280;65855;42.030;13.078;2023-10-08T08:38:51;94472.50;;;25.33
76895;BMP280;65855;42.030;13.078;2023-10-08T08:41:17;94474.28;;;26.02
76895;BMP280;65855;42.030;13.078;2023-10-08T08:43:52;94469.34;;;25.94
76895;BMP280;65855;42.030;13.078;2023-10-08T08:46:42;94475.34;;;26.30
76895;BMP280;65855;42.030;13.078;2023-10-08T08:49:08;94467.13;;;26.82
76895;BMP280;65855;42.030;13.078;2023-10-08T08:51:35;94476.22;;;26.08
76895;BMP280;65855;42.030;13.078;2023-10-08T08:54:01;94463.66;;;25.34
76895;BMP280;65855;42.030;13.078;2023-10-08T08:56:33;94457.72;;;25.81
76895;BMP280;65855;42.030;13.078;2023-10-08T08:58:59;94455.81;;;24.83
76895;BMP280;65855;42.030;13.078;2023-10-08T09:01:26;94454.88;;;23.98
76895;BMP280;65855;42.030;13.078;2023-10-08T09:03:59;94447.81;;;23.95
76895;BMP280;65855;42.030;13.078;2023-10-08T09:06:26;94433.47;;;23.79
76895;BMP280;65855;42.030;13.078;2023-10-08T09:08:53;94433.88;;;24.33
76895;BMP280;65855;42.030;13.078;2023-10-08T09:11:21;94426.97;;;25.00
76895;BMP280;65855;42.030;13.078;2023-10-08T09:13:46;94425.00;;;26.53
76895;BMP280;65855;42.030;13.078;2023-10-08T09:16:16;94420.47;;;27.74
76895;BMP280;65855;42.030;13.078;2023-10-08T09:18:47;94427.66;;;27.98
76895;BMP280;65855;42.030;13.078;2023-10-08T09:21:18;94428.19;;;26.40
76895;BMP280;65855;42.030;13.078;2023-10-08T09:23:52;94433.28;;;26.65
76895;BMP280;65855;42.030;13.078;2023-10-08T09:26:23;94439.00;;;28.60
76895;BMP280;65855;42.030;13.078;2023-10-08T09:28:48;94445.41;;;29.45
76895;BMP280;65855;42.030;13.078;2023-10-08T09:31:15;94445.41;;;29.48
76895;BMP280;65855;42.030;13.078;2023-10-08T09:33:43;94450.56;;;29.90
76895;BMP280;65855;42.030;13.078;2023-10-08T09:36:09;94444.69;;;29.51
76895;BMP280;65855;42.030;13.078;2023-10-08T09:38:45;94452.38;;;30.17
76895;BMP280;65855;42.030;13.078;2023-10-08T09:41:14;94451.53;;;30.43
76895;BMP280;65855;42.030;13.078;2023-10-08T09:43:40;94448.75;;;29.69
76895;BMP280;65855;42.030;13.078;2023-10-08T09:46:16;94444.53;;;30.27
76895;BMP280;65855;42.030;13.078;2023-10-08T09:48:49;94443.19;;;29.68
76895;BMP280;65855;42.030;13.078;2023-10-08T09:51:16;94456.06;;;30.29
76895;BMP280;65855;42.030;13.078;2023-10-08T09:54:12;94450.81;;;30.33
76895;BMP280;65855;42.030;13.078;2023-10-08T09:56:40;94452.72;;;30.22
76895;BMP280;65855;42.030;13.078;2023-10-08T09:59:07;94442.41;;;30.82
76895;BMP280;65855;42.030;13.078;2023-10-08T10:01:36;94448.69;;;29.90
76895;BMP280;65855;42.030;13.078;2023-10-08T10:04:06;94457.22;;;30.01
76895;BMP280;65855;42.030;13.078;2023-10-08T10:06:34;94459.63;;;30.66
76895;BMP280;65855;42.030;13.078;2023-10-08T10:09:01;94450.00;;;31.20
76895;BMP280;65855;42.030;13.078;2023-10-08T10:11:28;94448.56;;;31.12
76895;BMP280;65855;42.030;13.078;2023-10-08T10:14:02;94446.09;;;30.88
76895;BMP280;65855;42.030;13.078;2023-10-08T10:16:31;94440.56;;;29.78
76895;BMP280;65855;42.030;13.078;2023-10-08T10:18:59;94444.59;;;28.79
76895;BMP280;65855;42.030;13.078;2023-10-08T10:21:28;94439.09;;;27.90
76895;BMP280;65855;42.030;13.078;2023-10-08T10:23:55;94434.75;;;27.02
76895;BMP280;65855;42.030;13.078;2023-10-08T10:26:31;94440.03;;;27.16
76895;BMP280;65855;42.030;13.078;2023-10-08T10:31:41;94429.47;;;26.92
76895;BMP280;65855;42.030;13.078;2023-10-08T10:34:26;94420.00;;;27.59
76895;BMP280;65855;42.030;13.078;2023-10-08T10:36:57;94417.19;;;27.25
76895;BMP280;65855;42.030;13.078;2023-10-08T10:39:34;94416.34;;;28.40
76895;BMP280;65855;42.030;13.078;2023-10-08T10:42:05;94411.56;;;28.49
76895;BMP280;65855;42.030;13.078;2023-10-08T10:44:32;94414.88;;;28.43
76895;BMP280;65855;42.030;13.078;2023-10-08T10:47:02;94411.50;;;27.12
76895;BMP280;65855;42.030;13.078;2023-10-08T10:49:46;94408.94;;;29.90
76895;BMP280;65855;42.030;13.078;2023-10-08T10:52:26;94406.34;;;30.74
76895;BMP280;65855;42.030;13.078;2023-10-08T10:55:05;94402.41;;;33.06
76895;BMP280;65855;42.030;13.078;2023-10-08T10:57:56;94406.81;;;32.57
76895;BMP280;65855;42.030;13.078;2023-10-08T11:00:25;94401.41;;;33.23
76895;BMP280;65855;42.030;13.078;2023-10-08T11:02:58;94397.69;;;32.42
76895;BMP280;65855;42.030;13.078;2023-10-08T11:05:32;94400.38;;;33.39
76895;BMP280;65855;42.030;13.078;2023-10-08T11:08:03;94399.56;;;33.42
76895;BMP280;65855;42.030;13.078;2023-10-08T11:10:38;94393.81;;;33.73
76895;BMP280;65855;42.030;13.078;2023-10-08T11:13:06;94387.78;;;35.03
76895;BMP280;65855;42.030;13.078;2023-10-08T11:15:43;94393.66;;;35.82
76895;BMP280;65855;42.030;13.078;2023-10-08T11:18:14;94390.59;;;35.55
76895;BMP280;65855;42.030;13.078;2023-10-08T11:20:43;94389.59;;;34.36
76895;BMP280;65855;42.030;13.078;2023-10-08T11:25:56;94389.25;;;36.47
76895;BMP280;65855;42.030;13.078;2023-10-08T11:28:27;94377.25;;;36.46
76895;BMP280;65855;42.030;13.078;2023-10-08T11:30:53;94380.72;;;35.75
76895;BMP280;65855;42.030;13.078;2023-10-08T11:33:19;94372.63;;;35.98
76895;BMP280;65855;42.030;13.078;2023-10-08T11:35:57;94384.38;;;32.60
76895;BMP280;65855;42.030;13.078;2023-10-08T11:38:26;94374.94;;;34.39
76895;BMP280;65855;42.030;13.078;2023-10-08T11:40:54;94369.16;;;36.01
76895;BMP280;65855;42.030;13.078;2023-10-08T11:43:23;94369.84;;;36.81
76895;BMP280;65855;42.030;13.078;2023-10-08T11:45:49;94368.22;;;36.35
76895;BMP280;65855;42.030;13.078;2023-10-08T11:48:15;94369.06;;;37.05
76895;BMP280;65855;42.030;13.078;2023-10-08T11:50:47;94367.19;;;37.06
76895;BMP280;65855;42.030;13.078;2023-10-08T11:53:16;94364.56;;;36.94
76895;BMP280;65855;42.030;13.078;2023-10-08T11:55:42;94365.66;;;37.29
76895;BMP280;65855;42.030;13.078;2023-10-08T11:58:08;94364.63;;;37.27
76895;BMP280;65855;42.030;13.078;2023-10-08T12:00:41;94365.84;;;38.23
76895;BMP280;65855;42.030;13.078;2023-10-08T12:03:13;94352.78;;;37.98
76895;BMP280;65855;42.030;13.078;2023-10-08T12:05:43;94360.81;;;37.95
76895;BMP280;65855;42.030;13.078;2023-10-08T12:08:16;94349.53;;;39.14
76895;BMP280;65855;42.030;13.078;2023-10-08T12:10:44;94348.41;;;39.32
76895;BMP280;65855;42.030;13.078;2023-10-08T12:13:12;94349.41;;;39.26
76895;BMP280;65855;42.030;13.078;2023-10-08T12:15:37;94344.81;;;39.09
76895;BMP280;65855;42.030;13.078;2023-10-08T12:18:07;94346.50;;;39.68
76895;BMP280;65855;42.030;13.078;2023-10-08T12:20:50;94345.09;;;38.54
76895;BMP280;65855;42.030;13.078;2023-10-08T12:23:16;94344.28;;;39.31
76895;BMP280;65855;42.030;13.078;2023-10-08T12:25:54;94336.06;;;39.47
76895;BMP280;65855;42.030;13.078;2023-10-08T12:28:24;94338.13;;;40.14
76895;BMP280;65855;42.030;13.078;2023-10-08T12:30:50;94344.16;;;39.70
76895;BMP280;65855;42.030;13.078;2023-10-08T12:33:21;94342.34;;;40.11
76895;BMP280;65855;42.030;13.078;2023-10-08T12:35:49;94335.09;;;40.38
76895;BMP280;65855;42.030;13.078;2023-10-08T12:38:14;94337.25;;;40.89
76895;BMP280;65855;42.030;13.078;2023-10-08T12:40:40;94338.84;;;40.64
76895;BMP280;65855;42.030;13.078;2023-10-08T12:43:22;94334.69;;;40.40
76895;BMP280;65855;42.030;13.078;2023-10-08T12:45:51;94333.06;;;40.33
76895;BMP280;65855;42.030;13.078;2023-10-08T12:48:21;94333.00;;;40.51
76895;BMP280;65855;42.030;13.078;2023-10-08T12:50:48;94336.97;;;39.79
76895;BMP280;65855;42.030;13.078;2023-10-08T12:53:31;94333.06;;;40.74
76895;BMP280;65855;42.030;13.078;2023-10-08T12:56:03;94337.03;;;41.10
76895;BMP280;65855;42.030;13.078;2023-10-08T12:58:36;94330.75;;;40.18
76895;BMP280;65855;42.030;13.078;2023-10-08T13:01:12;94329.69;;;41.05
76895;BMP280;65855;42.030;13.078;2023-10-08T13:03:39;94328.66;;;41.26
76895;BMP280;65855;42.030;13.078;2023-10-08T13:06:12;94331.22;;;40.89
76895;BMP280;65855;42.030;13.078;2023-10-08T13:08:40;94327.38;;;41.21
76895;BMP280;65855;42.030;13.078;2023-10-08T13:11:06;94331.53;;;40.50
76895;BMP280;65855;42.030;13.078;2023-10-08T13:13:32;94323.75;;;39.53
76895;BMP280;65855;42.030;13.078;2023-10-08T13:15:59;94316.41;;;39.30
76895;BMP280;65855;42.030;13.078;2023-10-08T13:18:28;94327.88;;;38.80
76895;BMP280;65855;42.030;13.078;2023-10-08T13:20:54;94321.56;;;40.77
76895;BMP280;65855;42.030;13.078;2023-10-08T13:23:20;94322.63;;;40.79
76895;BMP280;65855;42.030;13.078;2023-10-08T13:25:51;94328.13;;;40.99
76895;BMP280;65855;42.030;13.078;2023-10-08T13:28:23;94328.03;;;40.85
76895;BMP280;65855;42.030;13.078;2023-10-08T13:30:51;94324.28;;;41.23
76895;BMP280;65855;42.030;13.078;2023-10-08T13:33:21;94324.00;;;40.98
76895;BMP280;65855;42.030;13.078;2023-10-08T13:35:50;94317.47;;;41.08
76895;BMP280;65855;42.030;13.078;2023-10-08T13:38:20;94321.47;;;41.49
76895;BMP280;65855;42.030;13.078;2023-10-08T13:40:49;94318.75;;;41.35
76895;BMP280;65855;42.030;13.078;2023-10-08T13:43:33;94312.25;;;40.26
76895;BMP280;65855;42.030;13.078;2023-10-08T13:46:04;94314.09;;;41.30
76895;BMP280;65855;42.030;13.078;2023-10-08T13:48:34;94311.75;;;40.37
76895;BMP280;65855;42.030;13.078;2023-10-08T13:51:02;94316.03;;;40.34
76895;BMP280;65855;42.030;13.078;2023-10-08T13:53:32;94312.88;;;40.44
76895;BMP280;65855;42.030;13.078;2023-10-08T13:56:01;94317.72;;;40.55
76895;BMP280;65855;42.030;13.078;2023-10-08T13:58:30;94310.97;;;40.86
76895;BMP280;65855;42.030;13.078;2023-10-08T14:00:57;94317.22;;;40.24
76895;BMP280;65855;42.030;13.078;2023-10-08T14:03:28;94313.41;;;38.24
76895;BMP280;65855;42.030;13.078;2023-10-08T14:05:57;94314.09;;;39.50
76895;BMP280;65855;42.030;13.078;2023-10-08T14:08:27;94313.47;;;39.11
76895;BMP280;65855;42.030;13.078;2023-10-08T14:10:54;94306.41;;;39.87
76895;BMP280;65855;42.030;13.078;2023-10-08T14:13:25;94307.28;;;40.51
76895;BMP280;65855;42.030;13.078;2023-10-08T14:15:52;94309.22;;;40.42
76895;BMP280;65855;42.030;13.078;2023-10-08T14:18:25;94304.66;;;39.93
76895;BMP280;65855;42.030;13.078;2023-10-08T14:20:57;94307.91;;;39.79
76895;BMP280;65855;42.030;13.078;2023-10-08T14:23:23;94316.13;;;39.46
76895;BMP280;65855;42.030;13.078;2023-10-08T14:25:51;94315.81;;;38.70
76895;BMP280;65855;42.030;13.078;2023-10-08T14:28:19;94316.16;;;39.81
76895;BMP280;65855;42.030;13.078;2023-10-08T14:30:48;94314.75;;;39.15
76895;BMP280;65855;42.030;13.078;2023-10-08T14:33:20;94311.22;;;37.39